sensor_id;sensor_type;location;lat;lon;timestamp;P1;durP1;ratioP1;P2;durP2;ratioP2
73337;SDS011;61575;49.908;35.556;2023-06-10T00:00:11;5.45;;;2.90;;
73337;SDS011;61575;49.908;35.556;2023-06-10T00:03:16;4.85;;;2.60;;
73337;SDS011;61575;49.908;35.556;2023-06-10T00:06:19;5.25;;;2.88;;
73337;SDS011;61575;49.908;35.556;2023-06-10T00:09:22;4.78;;;2.65;;
73337;SDS011;61575;49.908;35.556;2023-06-10T00:12:24;5.32;;;2.70;;
73337;SDS011;61575;49.908;35.556;2023-06-10T00:15:26;5.82;;;2.95;;
73337;SDS011;61575;49.908;35.556;2023-06-10T00:18:28;4.63;;;2.80;;
73337;SDS011;61575;49.908;35.556;2023-06-10T00:21:33;6.13;;;3.05;;
73337;SDS011;61575;49.908;35.556;2023-06-10T00:24:41;5.60;;;2.80;;
73337;SDS011;61575;49.908;35.556;2023-06-10T00:27:44;6.00;;;2.72;;
73337;SDS011;61575;49.908;35.556;2023-06-10T00:30:45;4.50;;;2.55;;
73337;SDS011;61575;49.908;35.556;2023-06-10T00:33:47;6.15;;;3.17;;
73337;SDS011;61575;49.908;35.556;2023-06-10T00:36:49;5.25;;;2.60;;
73337;SDS011;61575;49.908;35.556;2023-06-10T00:39:51;6.43;;;3.03;;
73337;SDS011;61575;49.908;35.556;2023-06-10T00:42:53;4.60;;;2.72;;
73337;SDS011;61575;49.908;35.556;2023-06-10T00:45:55;5.23;;;2.70;;
73337;SDS011;61575;49.908;35.556;2023-06-10T00:52:00;5.53;;;2.80;;
73337;SDS011;61575;49.908;35.556;2023-06-10T00:55:05;5.10;;;2.80;;
73337;SDS011;61575;49.908;35.556;2023-06-10T00:58:09;5.25;;;2.50;;
73337;SDS011;61575;49.908;35.556;2023-06-10T01:01:12;5.55;;;3.25;;
73337;SDS011;61575;49.908;35.556;2023-06-10T01:04:14;6.28;;;3.15;;
73337;SDS011;61575;49.908;35.556;2023-06-10T01:07:23;5.90;;;2.90;;
73337;SDS011;61575;49.908;35.556;2023-06-10T01:10:30;5.28;;;2.83;;
73337;SDS011;61575;49.908;35.556;2023-06-10T01:13:37;5.55;;;3.13;;
73337;SDS011;61575;49.908;35.556;2023-06-10T01:16:43;5.78;;;3.15;;
73337;SDS011;61575;49.908;35.556;2023-06-10T01:19:56;5.35;;;2.95;;
73337;SDS011;61575;49.908;35.556;2023-06-10T01:22:59;5.43;;;2.90;;
73337;SDS011;61575;49.908;35.556;2023-06-10T01:26:06;6.20;;;3.05;;
73337;SDS011;61575;49.908;35.556;2023-06-10T01:29:17;5.25;;;2.78;;
73337;SDS011;61575;49.908;35.556;2023-06-10T01:32:33;5.55;;;2.90;;
73337;SDS011;61575;49.908;35.556;2023-06-10T01:35:39;4.75;;;2.90;;
73337;SDS011;61575;49.908;35.556;2023-06-10T01:38:43;5.60;;;3.15;;
73337;SDS011;61575;49.908;35.556;2023-06-10T01:41:48;6.15;;;3.05;;
73337;SDS011;61575;49.908;35.556;2023-06-10T01:44:50;8.40;;;3.30;;
73337;SDS011;61575;49.908;35.556;2023-06-10T01:47:53;5.32;;;2.90;;
73337;SDS011;61575;49.908;35.556;2023-06-10T01:50:55;5.85;;;3.42;;
73337;SDS011;61575;49.908;35.556;2023-06-10T01:54:00;6.20;;;3.33;;
73337;SDS011;61575;49.908;35.556;2023-06-10T01:57:02;6.10;;;3.22;;
73337;SDS011;61575;49.908;35.556;2023-06-10T02:00:04;6.05;;;3.05;;
73337;SDS011;61575;49.908;35.556;2023-06-10T02:03:15;6.50;;;3.15;;
73337;SDS011;61575;49.908;35.556;2023-06-10T02:06:17;6.70;;;3.13;;
73337;SDS011;61575;49.908;35.556;2023-06-10T02:09:19;5.95;;;3.50;;
73337;SDS011;61575;49.908;35.556;2023-06-10T02:12:21;6.82;;;3.47;;
73337;SDS011;61575;49.908;35.556;2023-06-10T02:15:23;9.50;;;3.58;;
73337;SDS011;61575;49.908;35.556;2023-06-10T02:18:25;6.60;;;3.20;;
73337;SDS011;61575;49.908;35.556;2023-06-10T02:21:28;5.75;;;3.00;;
73337;SDS011;61575;49.908;35.556;2023-06-10T02:24:30;5.53;;;3.30;;
73337;SDS011;61575;49.908;35.556;2023-06-10T02:27:32;5.00;;;3.03;;
73337;SDS011;61575;49.908;35.556;2023-06-10T02:30:34;6.82;;;3.28;;
73337;SDS011;61575;49.908;35.556;2023-06-10T02:33:36;6.25;;;3.30;;
73337;SDS011;61575;49.908;35.556;2023-06-10T02:36:42;5.90;;;3.20;;
73337;SDS011;61575;49.908;35.556;2023-06-10T02:39:44;6.53;;;3.50;;
73337;SDS011;61575;49.908;35.556;2023-06-10T02:42:46;6.30;;;3.47;;
73337;SDS011;61575;49.908;35.556;2023-06-10T02:45:48;7.13;;;3.10;;
73337;SDS011;61575;49.908;35.556;2023-06-10T02:48:51;7.18;;;3.80;;
73337;SDS011;61575;49.908;35.556;2023-06-10T02:51:56;5.85;;;3.63;;
73337;SDS011;61575;49.908;35.556;2023-06-10T02:54:58;5.55;;;3.08;;
73337;SDS011;61575;49.908;35.556;2023-06-10T02:58:01;5.65;;;3.58;;
73337;SDS011;61575;49.908;35.556;2023-06-10T03:01:05;5.68;;;3.30;;
73337;SDS011;61575;49.908;35.556;2023-06-10T03:04:18;6.22;;;3.35;;
73337;SDS011;61575;49.908;35.556;2023-06-10T03:07:30;6.68;;;3.42;;
73337;SDS011;61575;49.908;35.556;2023-06-10T03:10:34;4.65;;;2.85;;
73337;SDS011;61575;49.908;35.556;2023-06-10T03:13:40;5.20;;;3.20;;
73337;SDS011;61575;49.908;35.556;2023-06-10T03:16:45;7.07;;;2.90;;
73337;SDS011;61575;49.908;35.556;2023-06-10T03:19:48;6.68;;;3.38;;
73337;SDS011;61575;49.908;35.556;2023-06-10T03:25:53;6.05;;;3.40;;
73337;SDS011;61575;49.908;35.556;2023-06-10T03:28:57;5.28;;;3.10;;
73337;SDS011;61575;49.908;35.556;2023-06-10T03:31:59;4.93;;;2.88;;
73337;SDS011;61575;49.908;35.556;2023-06-10T03:35:02;5.47;;;2.83;;
73337;SDS011;61575;49.908;35.556;2023-06-10T03:38:06;5.22;;;2.90;;
73337;SDS011;61575;49.908;35.556;2023-06-10T03:41:08;4.65;;;2.53;;
73337;SDS011;61575;49.908;35.556;2023-06-10T03:44:13;5.63;;;2.92;;
73337;SDS011;61575;49.908;35.556;2023-06-10T03:47:15;5.15;;;2.50;;
73337;SDS011;61575;49.908;35.556;2023-06-10T03:50:17;4.20;;;2.50;;
73337;SDS011;61575;49.908;35.556;2023-06-10T03:53:20;5.82;;;2.70;;
73337;SDS011;61575;49.908;35.556;2023-06-10T03:56:22;5.07;;;2.72;;
73337;SDS011;61575;49.908;35.556;2023-06-10T03:59:24;5.55;;;2.97;;
73337;SDS011;61575;49.908;35.556;2023-06-10T04:02:26;5.22;;;2.50;;
73337;SDS011;61575;49.908;35.556;2023-06-10T04:05:28;4.93;;;2.72;;
73337;SDS011;61575;49.908;35.556;2023-06-10T04:08:31;4.50;;;2.80;;
73337;SDS011;61575;49.908;35.556;2023-06-10T04:11:34;3.92;;;2.55;;
73337;SDS011;61575;49.908;35.556;2023-06-10T04:14:36;5.78;;;2.60;;
73337;SDS011;61575;49.908;35.556;2023-06-10T04:17:40;5.13;;;2.90;;
73337;SDS011;61575;49.908;35.556;2023-06-10T04:20:43;5.10;;;2.67;;
73337;SDS011;61575;49.908;35.556;2023-06-10T04:23:47;5.50;;;3.00;;
73337;SDS011;61575;49.908;35.556;2023-06-10T04:26:51;6.05;;;2.97;;
73337;SDS011;61575;49.908;35.556;2023-06-10T04:32:56;5.38;;;2.92;;
73337;SDS011;61575;49.908;35.556;2023-06-10T04:35:59;5.60;;;2.97;;
73337;SDS011;61575;49.908;35.556;2023-06-10T04:39:04;4.90;;;2.80;;
73337;SDS011;61575;49.908;35.556;2023-06-10T04:42:09;6.13;;;3.20;;
73337;SDS011;61575;49.908;35.556;2023-06-10T04:45:13;5.85;;;3.10;;
73337;SDS011;61575;49.908;35.556;2023-06-10T04:51:17;5.55;;;3.00;;
73337;SDS011;61575;49.908;35.556;2023-06-10T04:54:19;5.30;;;2.90;;
73337;SDS011;61575;49.908;35.556;2023-06-10T04:57:21;5.25;;;3.15;;
73337;SDS011;61575;49.908;35.556;2023-06-10T05:00:23;5.40;;;2.88;;
73337;SDS011;61575;49.908;35.556;2023-06-10T05:03:25;4.35;;;2.80;;
73337;SDS011;61575;49.908;35.556;2023-06-10T05:06:28;5.65;;;3.45;;
73337;SDS011;61575;49.908;35.556;2023-06-10T05:09:30;5.65;;;2.90;;
73337;SDS011;61575;49.908;35.556;2023-06-10T05:12:32;4.97;;;3.15;;
73337;SDS011;61575;49.908;35.556;2023-06-10T05:15:34;7.25;;;3.58;;
73337;SDS011;61575;49.908;35.556;2023-06-10T05:18:36;7.25;;;3.22;;
73337;SDS011;61575;49.908;35.556;2023-06-10T05:21:38;6.78;;;3.00;;
73337;SDS011;61575;49.908;35.556;2023-06-10T05:24:40;7.40;;;3.28;;
73337;SDS011;61575;49.908;35.556;2023-06-10T05:27:42;5.57;;;3.03;;
73337;SDS011;61575;49.908;35.556;2023-06-10T05:30:44;6.25;;;3.17;;
73337;SDS011;61575;49.908;35.556;2023-06-10T05:33:46;5.57;;;3.10;;
73337;SDS011;61575;49.908;35.556;2023-06-10T05:36:48;6.13;;;2.80;;
73337;SDS011;61575;49.908;35.556;2023-06-10T05:39:50;5.95;;;3.13;;
73337;SDS011;61575;49.908;35.556;2023-06-10T05:42:52;6.90;;;3.67;;
73337;SDS011;61575;49.908;35.556;2023-06-10T05:45:54;5.32;;;3.38;;
73337;SDS011;61575;49.908;35.556;2023-06-10T05:51:57;7.75;;;3.00;;
73337;SDS011;61575;49.908;35.556;2023-06-10T05:55:01;5.80;;;2.97;;
73337;SDS011;61575;49.908;35.556;2023-06-10T05:58:06;5.85;;;2.83;;
73337;SDS011;61575;49.908;35.556;2023-06-10T06:01:08;6.97;;;3.38;;
73337;SDS011;61575;49.908;35.556;2023-06-10T06:07:12;5.68;;;2.90;;
73337;SDS011;61575;49.908;35.556;2023-06-10T06:13:16;5.38;;;2.85;;
73337;SDS011;61575;49.908;35.556;2023-06-10T06:16:17;6.90;;;2.90;;
73337;SDS011;61575;49.908;35.556;2023-06-10T06:19:20;4.80;;;2.72;;
73337;SDS011;61575;49.908;35.556;2023-06-10T06:22:21;5.00;;;2.92;;
73337;SDS011;61575;49.908;35.556;2023-06-10T06:25:23;4.72;;;2.63;;
73337;SDS011;61575;49.908;35.556;2023-06-10T06:28:25;3.95;;;2.22;;
73337;SDS011;61575;49.908;35.556;2023-06-10T06:31:30;4.53;;;2.40;;
73337;SDS011;61575;49.908;35.556;2023-06-10T06:34:33;4.68;;;2.45;;
73337;SDS011;61575;49.908;35.556;2023-06-10T06:37:36;6.18;;;2.80;;
73337;SDS011;61575;49.908;35.556;2023-06-10T06:40:52;4.88;;;2.70;;
73337;SDS011;61575;49.908;35.556;2023-06-10T06:43:54;4.18;;;2.33;;
73337;SDS011;61575;49.908;35.556;2023-06-10T06:47:04;4.95;;;2.20;;
73337;SDS011;61575;49.908;35.556;2023-06-10T06:50:06;4.05;;;2.38;;
73337;SDS011;61575;49.908;35.556;2023-06-10T06:53:09;5.45;;;2.17;;
73337;SDS011;61575;49.908;35.556;2023-06-10T06:59:13;3.72;;;2.03;;
73337;SDS011;61575;49.908;35.556;2023-06-10T07:02:15;5.82;;;1.90;;
73337;SDS011;61575;49.908;35.556;2023-06-10T07:05:18;4.28;;;2.25;;
73337;SDS011;61575;49.908;35.556;2023-06-10T07:08:19;3.92;;;2.03;;
73337;SDS011;61575;49.908;35.556;2023-06-10T07:11:21;3.83;;;2.05;;
73337;SDS011;61575;49.908;35.556;2023-06-10T07:17:25;3.72;;;1.90;;
73337;SDS011;61575;49.908;35.556;2023-06-10T07:20:28;3.33;;;1.75;;
73337;SDS011;61575;49.908;35.556;2023-06-10T07:23:30;4.68;;;1.92;;
73337;SDS011;61575;49.908;35.556;2023-06-10T07:26:32;3.78;;;1.80;;
73337;SDS011;61575;49.908;35.556;2023-06-10T07:29:34;3.55;;;1.75;;
73337;SDS011;61575;49.908;35.556;2023-06-10T07:32:37;4.68;;;1.88;;
73337;SDS011;61575;49.908;35.556;2023-06-10T07:35:39;3.33;;;1.63;;
73337;SDS011;61575;49.908;35.556;2023-06-10T07:38:41;3.17;;;1.70;;
73337;SDS011;61575;49.908;35.556;2023-06-10T07:41:43;2.95;;;1.55;;
73337;SDS011;61575;49.908;35.556;2023-06-10T07:44:46;3.42;;;1.70;;
73337;SDS011;61575;49.908;35.556;2023-06-10T07:47:48;3.35;;;1.45;;
73337;SDS011;61575;49.908;35.556;2023-06-10T07:50:51;3.15;;;1.45;;
73337;SDS011;61575;49.908;35.556;2023-06-10T07:53:53;3.15;;;1.50;;
73337;SDS011;61575;49.908;35.556;2023-06-10T07:56:55;2.92;;;1.40;;
73337;SDS011;61575;49.908;35.556;2023-06-10T07:59:57;2.47;;;1.35;;
73337;SDS011;61575;49.908;35.556;2023-06-10T08:03:01;3.40;;;1.20;;
73337;SDS011;61575;49.908;35.556;2023-06-10T08:06:04;2.88;;;1.40;;
73337;SDS011;61575;49.908;35.556;2023-06-10T08:09:07;4.78;;;1.60;;
73337;SDS011;61575;49.908;35.556;2023-06-10T08:12:09;4.10;;;1.40;;
73337;SDS011;61575;49.908;35.556;2023-06-10T08:15:14;3.95;;;1.40;;
73337;SDS011;61575;49.908;35.556;2023-06-10T08:18:16;3.35;;;1.40;;
73337;SDS011;61575;49.908;35.556;2023-06-10T08:21:18;4.57;;;1.52;;
73337;SDS011;61575;49.908;35.556;2023-06-10T08:24:20;2.45;;;1.27;;
73337;SDS011;61575;49.908;35.556;2023-06-10T08:27:22;1.85;;;1.02;;
73337;SDS011;61575;49.908;35.556;2023-06-10T08:30:24;4.03;;;1.40;;
73337;SDS011;61575;49.908;35.556;2023-06-10T08:33:26;4.95;;;1.40;;
73337;SDS011;61575;49.908;35.556;2023-06-10T08:36:28;2.50;;;1.45;;
73337;SDS011;61575;49.908;35.556;2023-06-10T08:39:30;3.33;;;1.50;;
73337;SDS011;61575;49.908;35.556;2023-06-10T08:42:39;2.90;;;1.40;;
73337;SDS011;61575;49.908;35.556;2023-06-10T08:45:45;2.90;;;1.30;;
73337;SDS011;61575;49.908;35.556;2023-06-10T08:48:51;2.40;;;1.30;;
73337;SDS011;61575;49.908;35.556;2023-06-10T08:51:59;5.10;;;1.70;;
73337;SDS011;61575;49.908;35.556;2023-06-10T08:55:04;3.13;;;1.70;;
73337;SDS011;61575;49.908;35.556;2023-06-10T08:58:13;4.07;;;1.40;;
73337;SDS011;61575;49.908;35.556;2023-06-10T09:01:15;2.28;;;1.20;;
73337;SDS011;61575;49.908;35.556;2023-06-10T09:04:18;2.88;;;1.10;;
73337;SDS011;61575;49.908;35.556;2023-06-10T09:07:21;4.60;;;1.50;;
73337;SDS011;61575;49.908;35.556;2023-06-10T09:10:25;4.05;;;1.90;;
73337;SDS011;61575;49.908;35.556;2023-06-10T09:13:28;3.83;;;1.60;;
73337;SDS011;61575;49.908;35.556;2023-06-10T09:16:30;3.80;;;1.55;;
73337;SDS011;61575;49.908;35.556;2023-06-10T09:19:32;2.50;;;1.30;;
73337;SDS011;61575;49.908;35.556;2023-06-10T09:22:35;4.03;;;1.50;;
73337;SDS011;61575;49.908;35.556;2023-06-10T09:25:37;3.30;;;1.50;;
73337;SDS011;61575;49.908;35.556;2023-06-10T09:28:41;5.45;;;1.40;;
73337;SDS011;61575;49.908;35.556;2023-06-10T09:31:46;3.90;;;1.70;;
73337;SDS011;61575;49.908;35.556;2023-06-10T09:34:48;3.92;;;1.42;;
73337;SDS011;61575;49.908;35.556;2023-06-10T09:37:52;3.30;;;1.48;;
73337;SDS011;61575;49.908;35.556;2023-06-10T09:40:55;4.55;;;1.50;;
73337;SDS011;61575;49.908;35.556;2023-06-10T09:43:57;2.55;;;1.30;;
73337;SDS011;61575;49.908;35.556;2023-06-10T09:47:00;2.40;;;1.25;;
73337;SDS011;61575;49.908;35.556;2023-06-10T09:50:02;5.07;;;1.65;;
73337;SDS011;61575;49.908;35.556;2023-06-10T09:53:06;2.80;;;1.42;;
73337;SDS011;61575;49.908;35.556;2023-06-10T09:56:08;3.15;;;1.30;;
73337;SDS011;61575;49.908;35.556;2023-06-10T09:59:11;3.22;;;1.40;;
73337;SDS011;61575;49.908;35.556;2023-06-10T10:02:16;3.33;;;1.67;;
73337;SDS011;61575;49.908;35.556;2023-06-10T10:05:19;1.85;;;1.13;;
73337;SDS011;61575;49.908;35.556;2023-06-10T10:08:23;3.72;;;1.40;;
73337;SDS011;61575;49.908;35.556;2023-06-10T10:11:25;3.30;;;1.42;;
73337;SDS011;61575;49.908;35.556;2023-06-10T10:14:28;2.72;;;1.40;;
73337;SDS011;61575;49.908;35.556;2023-06-10T10:17:34;3.25;;;1.40;;
73337;SDS011;61575;49.908;35.556;2023-06-10T10:20:51;3.80;;;1.30;;
73337;SDS011;61575;49.908;35.556;2023-06-10T10:24:04;2.17;;;1.30;;
73337;SDS011;61575;49.908;35.556;2023-06-10T10:27:13;2.60;;;1.42;;
73337;SDS011;61575;49.908;35.556;2023-06-10T10:30:45;4.40;;;1.60;;
73337;SDS011;61575;49.908;35.556;2023-06-10T10:33:59;5.65;;;1.30;;
73337;SDS011;61575;49.908;35.556;2023-06-10T10:37:04;3.25;;;1.30;;
73337;SDS011;61575;49.908;35.556;2023-06-10T10:40:06;3.65;;;1.60;;
73337;SDS011;61575;49.908;35.556;2023-06-10T10:43:09;3.25;;;1.50;;
73337;SDS011;61575;49.908;35.556;2023-06-10T10:46:13;4.40;;;1.60;;
73337;SDS011;61575;49.908;35.556;2023-06-10T10:49:17;3.20;;;1.40;;
73337;SDS011;61575;49.908;35.556;2023-06-10T10:52:20;3.25;;;1.63;;
73337;SDS011;61575;49.908;35.556;2023-06-10T10:55:23;4.05;;;1.63;;
73337;SDS011;61575;49.908;35.556;2023-06-10T10:58:25;2.70;;;1.30;;
73337;SDS011;61575;49.908;35.556;2023-06-10T11:01:28;2.58;;;1.40;;
73337;SDS011;61575;49.908;35.556;2023-06-10T11:04:48;3.72;;;1.70;;
73337;SDS011;61575;49.908;35.556;2023-06-10T11:07:54;2.97;;;1.58;;
73337;SDS011;61575;49.908;35.556;2023-06-10T11:11:00;3.53;;;1.70;;
73337;SDS011;61575;49.908;35.556;2023-06-10T11:17:11;3.65;;;1.50;;
73337;SDS011;61575;49.908;35.556;2023-06-10T11:23:50;3.85;;;1.70;;
73337;SDS011;61575;49.908;35.556;2023-06-10T11:26:52;2.67;;;1.50;;
73337;SDS011;61575;49.908;35.556;2023-06-10T11:33:02;3.03;;;1.58;;
73337;SDS011;61575;49.908;35.556;2023-06-10T11:36:06;3.03;;;1.55;;
73337;SDS011;61575;49.908;35.556;2023-06-10T11:39:09;3.13;;;1.52;;
73337;SDS011;61575;49.908;35.556;2023-06-10T11:42:12;2.95;;;1.55;;
73337;SDS011;61575;49.908;35.556;2023-06-10T11:45:16;3.00;;;1.42;;
73337;SDS011;61575;49.908;35.556;2023-06-10T11:48:18;3.15;;;1.77;;
73337;SDS011;61575;49.908;35.556;2023-06-10T11:51:20;3.70;;;1.60;;
73337;SDS011;61575;49.908;35.556;2023-06-10T11:54:22;3.42;;;1.50;;
73337;SDS011;61575;49.908;35.556;2023-06-10T11:57:24;2.90;;;1.40;;
73337;SDS011;61575;49.908;35.556;2023-06-10T12:00:26;3.80;;;1.90;;
73337;SDS011;61575;49.908;35.556;2023-06-10T12:03:35;3.88;;;2.00;;
73337;SDS011;61575;49.908;35.556;2023-06-10T12:06:47;5.88;;;3.78;;
73337;SDS011;61575;49.908;35.556;2023-06-10T12:09:58;7.97;;;5.50;;
73337;SDS011;61575;49.908;35.556;2023-06-10T12:13:12;5.32;;;3.50;;
73337;SDS011;61575;49.908;35.556;2023-06-10T12:16:14;3.40;;;2.13;;
73337;SDS011;61575;49.908;35.556;2023-06-10T12:19:17;4.65;;;2.30;;
73337;SDS011;61575;49.908;35.556;2023-06-10T12:22:19;4.72;;;2.75;;
73337;SDS011;61575;49.908;35.556;2023-06-10T12:25:27;5.95;;;3.25;;
73337;SDS011;61575;49.908;35.556;2023-06-10T12:28:30;7.22;;;4.50;;
73337;SDS011;61575;49.908;35.556;2023-06-10T12:31:32;10.00;;;4.95;;
73337;SDS011;61575;49.908;35.556;2023-06-10T12:34:37;6.78;;;3.78;;
73337;SDS011;61575;49.908;35.556;2023-06-10T12:37:41;6.68;;;4.05;;
73337;SDS011;61575;49.908;35.556;2023-06-10T12:40:44;4.80;;;2.72;;
73337;SDS011;61575;49.908;35.556;2023-06-10T12:43:46;6.63;;;3.55;;
73337;SDS011;61575;49.908;35.556;2023-06-10T12:46:53;4.97;;;2.60;;
73337;SDS011;61575;49.908;35.556;2023-06-10T12:49:57;5.97;;;2.45;;
73337;SDS011;61575;49.908;35.556;2023-06-10T12:53:00;4.95;;;2.72;;
73337;SDS011;61575;49.908;35.556;2023-06-10T12:56:03;4.70;;;2.53;;
73337;SDS011;61575;49.908;35.556;2023-06-10T12:59:04;5.53;;;2.67;;
73337;SDS011;61575;49.908;35.556;2023-06-10T13:02:07;6.28;;;2.78;;
73337;SDS011;61575;49.908;35.556;2023-06-10T13:05:09;6.05;;;3.58;;
73337;SDS011;61575;49.908;35.556;2023-06-10T13:08:15;4.28;;;2.38;;
73337;SDS011;61575;49.908;35.556;2023-06-10T13:11:17;5.63;;;3.00;;
73337;SDS011;61575;49.908;35.556;2023-06-10T13:14:19;3.80;;;2.10;;
73337;SDS011;61575;49.908;35.556;2023-06-10T13:17:21;5.68;;;2.53;;
73337;SDS011;61575;49.908;35.556;2023-06-10T13:20:23;5.22;;;2.47;;
73337;SDS011;61575;49.908;35.556;2023-06-10T13:23:25;3.95;;;2.05;;
73337;SDS011;61575;49.908;35.556;2023-06-10T13:26:27;3.60;;;2.10;;
73337;SDS011;61575;49.908;35.556;2023-06-10T13:29:29;4.13;;;2.40;;
73337;SDS011;61575;49.908;35.556;2023-06-10T13:32:32;5.25;;;2.53;;
73337;SDS011;61575;49.908;35.556;2023-06-10T13:35:34;5.68;;;2.55;;
73337;SDS011;61575;49.908;35.556;2023-06-10T13:38:36;6.55;;;2.42;;
73337;SDS011;61575;49.908;35.556;2023-06-10T13:41:38;4.45;;;2.05;;
73337;SDS011;61575;49.908;35.556;2023-06-10T13:44:40;3.78;;;2.10;;
73337;SDS011;61575;49.908;35.556;2023-06-10T13:47:42;4.97;;;2.28;;
73337;SDS011;61575;49.908;35.556;2023-06-10T13:50:44;4.40;;;2.42;;
73337;SDS011;61575;49.908;35.556;2023-06-10T13:53:47;4.50;;;2.30;;
73337;SDS011;61575;49.908;35.556;2023-06-10T13:56:49;4.63;;;2.45;;
73337;SDS011;61575;49.908;35.556;2023-06-10T13:59:50;5.07;;;2.20;;
73337;SDS011;61575;49.908;35.556;2023-06-10T14:02:53;5.00;;;2.75;;
73337;SDS011;61575;49.908;35.556;2023-06-10T14:05:55;3.83;;;1.95;;
73337;SDS011;61575;49.908;35.556;2023-06-10T14:08:57;3.58;;;2.10;;
73337;SDS011;61575;49.908;35.556;2023-06-10T14:11:59;4.18;;;2.17;;
73337;SDS011;61575;49.908;35.556;2023-06-10T14:15:01;3.38;;;1.80;;
73337;SDS011;61575;49.908;35.556;2023-06-10T14:18:03;3.47;;;2.00;;
73337;SDS011;61575;49.908;35.556;2023-06-10T14:21:06;3.58;;;2.03;;
73337;SDS011;61575;49.908;35.556;2023-06-10T14:24:08;3.72;;;2.10;;
73337;SDS011;61575;49.908;35.556;2023-06-10T14:27:10;3.70;;;2.00;;
73337;SDS011;61575;49.908;35.556;2023-06-10T14:30:12;4.07;;;2.40;;
73337;SDS011;61575;49.908;35.556;2023-06-10T14:33:14;3.47;;;2.03;;
73337;SDS011;61575;49.908;35.556;2023-06-10T14:36:16;4.20;;;2.17;;
73337;SDS011;61575;49.908;35.556;2023-06-10T14:39:18;4.30;;;2.30;;
73337;SDS011;61575;49.908;35.556;2023-06-10T14:42:19;4.10;;;2.10;;
73337;SDS011;61575;49.908;35.556;2023-06-10T14:45:21;3.53;;;2.03;;
73337;SDS011;61575;49.908;35.556;2023-06-10T14:48:23;3.65;;;2.10;;
73337;SDS011;61575;49.908;35.556;2023-06-10T14:51:25;4.20;;;2.35;;
73337;SDS011;61575;49.908;35.556;2023-06-10T14:54:27;5.10;;;2.40;;
73337;SDS011;61575;49.908;35.556;2023-06-10T14:57:29;3.95;;;2.38;;
73337;SDS011;61575;49.908;35.556;2023-06-10T15:00:33;3.72;;;2.28;;
73337;SDS011;61575;49.908;35.556;2023-06-10T15:03:34;4.00;;;2.35;;
73337;SDS011;61575;49.908;35.556;2023-06-10T15:06:36;6.38;;;2.80;;
73337;SDS011;61575;49.908;35.556;2023-06-10T15:12:40;4.63;;;2.40;;
73337;SDS011;61575;49.908;35.556;2023-06-10T15:18:44;5.72;;;2.90;;
73337;SDS011;61575;49.908;35.556;2023-06-10T15:21:46;5.88;;;3.03;;
73337;SDS011;61575;49.908;35.556;2023-06-10T15:27:49;5.70;;;2.92;;
73337;SDS011;61575;49.908;35.556;2023-06-10T15:30:52;5.28;;;2.58;;
73337;SDS011;61575;49.908;35.556;2023-06-10T15:36:56;4.72;;;2.53;;
73337;SDS011;61575;49.908;35.556;2023-06-10T15:42:59;6.68;;;2.88;;
73337;SDS011;61575;49.908;35.556;2023-06-10T15:49:03;5.55;;;2.75;;
73337;SDS011;61575;49.908;35.556;2023-06-10T15:55:07;4.35;;;2.60;;
73337;SDS011;61575;49.908;35.556;2023-06-10T15:58:10;6.20;;;3.30;;
73337;SDS011;61575;49.908;35.556;2023-06-10T16:04:15;6.20;;;3.45;;
73337;SDS011;61575;49.908;35.556;2023-06-10T16:07:17;7.63;;;3.30;;
73337;SDS011;61575;49.908;35.556;2023-06-10T16:13:23;5.85;;;2.83;;
73337;SDS011;61575;49.908;35.556;2023-06-10T16:19:27;4.72;;;2.60;;
73337;SDS011;61575;49.908;35.556;2023-06-10T16:25:30;6.40;;;2.90;;
73337;SDS011;61575;49.908;35.556;2023-06-10T16:28:33;4.40;;;2.53;;
73337;SDS011;61575;49.908;35.556;2023-06-10T16:31:35;4.78;;;2.60;;
73337;SDS011;61575;49.908;35.556;2023-06-10T16:34:37;4.50;;;2.70;;
73337;SDS011;61575;49.908;35.556;2023-06-10T16:43:43;4.65;;;2.30;;
73337;SDS011;61575;49.908;35.556;2023-06-10T16:49:47;6.22;;;3.00;;
73337;SDS011;61575;49.908;35.556;2023-06-10T16:52:51;4.63;;;2.60;;
73337;SDS011;61575;49.908;35.556;2023-06-10T16:55:53;5.38;;;2.70;;
73337;SDS011;61575;49.908;35.556;2023-06-10T16:58:55;5.35;;;2.67;;
73337;SDS011;61575;49.908;35.556;2023-06-10T17:05:02;4.40;;;2.78;;
73337;SDS011;61575;49.908;35.556;2023-06-10T17:08:05;4.40;;;2.38;;
73337;SDS011;61575;49.908;35.556;2023-06-10T17:11:08;4.75;;;2.65;;
73337;SDS011;61575;49.908;35.556;2023-06-10T17:14:10;6.70;;;2.85;;
73337;SDS011;61575;49.908;35.556;2023-06-10T17:17:12;4.70;;;2.80;;
73337;SDS011;61575;49.908;35.556;2023-06-10T17:20:14;5.90;;;2.75;;
73337;SDS011;61575;49.908;35.556;2023-06-10T17:23:16;6.32;;;2.90;;
73337;SDS011;61575;49.908;35.556;2023-06-10T17:26:18;5.35;;;2.33;;
73337;SDS011;61575;49.908;35.556;2023-06-10T17:29:21;4.55;;;2.67;;
73337;SDS011;61575;49.908;35.556;2023-06-10T17:32:23;5.35;;;2.58;;
73337;SDS011;61575;49.908;35.556;2023-06-10T17:35:26;6.15;;;2.70;;
73337;SDS011;61575;49.908;35.556;2023-06-10T17:38:27;4.38;;;2.70;;
73337;SDS011;61575;49.908;35.556;2023-06-10T17:41:29;4.05;;;2.42;;
73337;SDS011;61575;49.908;35.556;2023-06-10T17:44:31;6.68;;;2.90;;
73337;SDS011;61575;49.908;35.556;2023-06-10T17:47:33;5.75;;;3.03;;
73337;SDS011;61575;49.908;35.556;2023-06-10T17:53:37;8.07;;;2.95;;
73337;SDS011;61575;49.908;35.556;2023-06-10T17:56:39;5.78;;;3.08;;
73337;SDS011;61575;49.908;35.556;2023-06-10T17:59:41;5.82;;;2.63;;
73337;SDS011;61575;49.908;35.556;2023-06-10T18:02:43;5.28;;;2.75;;
73337;SDS011;61575;49.908;35.556;2023-06-10T18:05:46;5.50;;;2.47;;
73337;SDS011;61575;49.908;35.556;2023-06-10T18:08:48;7.53;;;2.72;;
73337;SDS011;61575;49.908;35.556;2023-06-10T18:11:49;5.82;;;3.38;;
73337;SDS011;61575;49.908;35.556;2023-06-10T18:14:51;6.55;;;3.00;;
73337;SDS011;61575;49.908;35.556;2023-06-10T18:17:53;8.20;;;3.30;;
73337;SDS011;61575;49.908;35.556;2023-06-10T18:20:55;8.93;;;3.60;;
73337;SDS011;61575;49.908;35.556;2023-06-10T18:24:03;9.82;;;3.50;;
73337;SDS011;61575;49.908;35.556;2023-06-10T18:27:07;6.80;;;3.33;;
73337;SDS011;61575;49.908;35.556;2023-06-10T18:30:09;7.68;;;3.35;;
73337;SDS011;61575;49.908;35.556;2023-06-10T18:33:12;5.93;;;3.15;;
73337;SDS011;61575;49.908;35.556;2023-06-10T18:36:16;7.20;;;3.20;;
73337;SDS011;61575;49.908;35.556;2023-06-10T18:39:18;5.45;;;2.92;;
73337;SDS011;61575;49.908;35.556;2023-06-10T18:42:20;7.57;;;3.13;;
73337;SDS011;61575;49.908;35.556;2023-06-10T18:45:23;6.45;;;2.92;;
73337;SDS011;61575;49.908;35.556;2023-06-10T18:48:25;4.70;;;2.50;;
73337;SDS011;61575;49.908;35.556;2023-06-10T18:54:29;6.40;;;3.20;;
73337;SDS011;61575;49.908;35.556;2023-06-10T18:57:32;6.72;;;3.50;;
73337;SDS011;61575;49.908;35.556;2023-06-10T19:00:35;7.30;;;3.47;;
73337;SDS011;61575;49.908;35.556;2023-06-10T19:03:37;7.93;;;3.50;;
73337;SDS011;61575;49.908;35.556;2023-06-10T19:06:40;6.88;;;3.00;;
73337;SDS011;61575;49.908;35.556;2023-06-10T19:09:42;7.20;;;3.38;;
73337;SDS011;61575;49.908;35.556;2023-06-10T19:12:44;10.13;;;3.67;;
73337;SDS011;61575;49.908;35.556;2023-06-10T19:18:50;5.85;;;2.70;;
73337;SDS011;61575;49.908;35.556;2023-06-10T19:21:53;6.53;;;3.35;;
73337;SDS011;61575;49.908;35.556;2023-06-10T19:24:59;4.90;;;2.78;;
73337;SDS011;61575;49.908;35.556;2023-06-10T19:28:06;6.22;;;2.70;;
73337;SDS011;61575;49.908;35.556;2023-06-10T19:31:10;4.68;;;2.42;;
73337;SDS011;61575;49.908;35.556;2023-06-10T19:34:13;4.07;;;2.50;;
73337;SDS011;61575;49.908;35.556;2023-06-10T19:37:14;3.80;;;1.95;;